Time;durP1;ratioP1;P1;durP2;ratioP2;P2;SDS_P1;SDS_P2;PMS_P1;PMS_P2;Temp;Humidity;BMP_temperature;BMP_pressure;BME280_temperature;BME280_humidity;BME280_pressure;Samples;Min_cycle;Max_cycle;Signal;HPM_P1;HPM_P2
2022/05/24 00:02:49;;;;;;;2.75;1.02;;;;;;;18.60;100.00;96863.16;15291461;19;20014;-88
2022/05/24 00:13:35;;;;;;;2.55;1.10;;;;;;;18.52;100.00;96877.25;15305458;19;19915;-86
2022/05/24 00:18:40;;;;;;;2.05;0.90;;;;;;;18.49;100.00;96885.91;15313674;19;20007;-84
2022/05/24 00:23:45;;;;;;;2.22;0.90;;;;;;;18.52;100.00;96888.16;15307535;19;20041;-86
2022/05/24 00:28:55;;;;;;;2.60;1.05;;;;;;;18.53;100.00;96888.97;15302788;19;20827;-84
2022/05/24 00:34:10;;;;;;;2.53;1.02;;;;;;;18.51;100.00;96902.03;15293838;19;20014;-87
2022/05/24 00:39:21;;;;;;;2.63;1.10;;;;;;;18.47;100.00;96908.00;15306767;19;20031;-85
2022/05/24 00:44:35;;;;;;;2.38;0.93;;;;;;;18.44;100.00;96894.84;15297789;19;20023;-84
2022/05/24 00:49:44;;;;;;;1.65;0.85;;;;;;;18.37;100.00;96907.00;15292223;19;20019;-84
2022/05/24 00:54:49;;;;;;;2.72;0.90;;;;;;;18.38;100.00;96914.09;15295547;19;20026;-85
2022/05/24 01:00:06;;;;;;;1.40;0.90;;;;;;;18.33;100.00;96906.66;15299220;19;20015;-84
2022/05/24 01:05:22;;;;;;;1.65;0.70;;;;;;;18.33;100.00;96912.13;15300756;19;20015;-85
2022/05/24 01:10:32;;;;;;;0.87;0.53;;;;;;;18.27;100.00;96913.13;15336825;19;20007;-84
2022/05/24 01:15:43;;;;;;;1.33;0.60;;;;;;;18.26;100.00;96927.84;15293963;19;20006;-85
2022/05/24 01:20:56;;;;;;;0.68;0.60;;;;;;;18.24;100.00;96938.97;15288060;19;20018;-87
2022/05/24 01:26:09;;;;;;;1.45;0.70;;;;;;;18.19;100.00;96925.25;15287948;19;20010;-83
2022/05/24 01:31:17;;;;;;;1.63;0.70;;;;;;;18.16;100.00;96923.03;15287408;19;20019;-84
2022/05/24 01:42:06;;;;;;;2.95;0.60;;;;;;;17.97;100.00;96936.06;15279911;19;20046;-84
2022/05/24 01:47:26;;;;;;;2.00;0.60;;;;;;;17.85;100.00;96942.38;15279748;19;20031;-84
2022/05/24 01:52:42;;;;;;;0.88;0.60;;;;;;;17.79;100.00;96951.53;15272639;19;20086;-84
2022/05/24 01:57:54;;;;;;;1.38;0.43;;;;;;;17.75;100.00;96950.34;15286219;19;20015;-83
2022/05/24 02:03:02;;;;;;;1.23;0.53;;;;;;;17.80;100.00;96946.88;15356858;19;20011;-84
2022/05/24 02:08:21;;;;;;;2.08;0.60;;;;;;;17.83;100.00;96954.59;15310089;19;20019;-83
2022/05/24 02:14:24;;;;;;;2.53;0.63;;;;;;;17.82;100.00;96945.56;15300855;19;20097;-85
2022/05/24 02:19:45;;;;;;;0.73;0.60;;;;;;;17.77;100.00;96950.94;15301898;19;20014;-85
2022/05/24 02:24:57;;;;;;;0.75;0.45;;;;;;;17.80;100.00;96946.88;15299043;19;20829;-87
2022/05/24 02:30:06;;;;;;;1.60;0.60;;;;;;;17.70;100.00;96959.25;15307178;19;20026;-84
2022/05/24 02:35:25;;;;;;;1.60;0.55;;;;;;;17.64;100.00;96959.41;15306432;19;20011;-86
2022/05/24 02:45:49;;;;;;;1.95;0.73;;;;;;;17.59;100.00;96970.19;15304139;19;20009;-83
2022/05/24 02:51:00;;;;;;;2.85;0.50;;;;;;;17.56;100.00;96980.50;15291993;19;20035;-83
2022/05/24 02:56:06;;;;;;;1.20;0.60;;;;;;;17.44;100.00;96998.78;15288125;19;20435;-54
2022/05/24 03:01:18;;;;;;;0.55;0.50;;;;;;;17.40;100.00;97005.75;15294367;19;20034;-57
2022/05/24 03:06:26;;;;;;;1.55;0.60;;;;;;;17.27;100.00;97008.72;15289006;19;20054;-59
2022/05/24 03:14:14;;;;;;;0.77;0.77;;;;;;;17.18;100.00;97009.13;15290120;19;20030;-55
2022/05/24 03:16:59;;;;;;;1.00;0.70;;;;;;;16.98;100.00;97025.81;15288290;19;20018;-54
2022/05/24 03:22:09;;;;;;;0.90;0.73;;;;;;;16.84;100.00;97030.63;15290677;19;20026;-57
2022/05/24 03:27:14;;;;;;;1.40;0.90;;;;;;;16.71;100.00;97039.81;15286363;19;20018;-57
2022/05/24 03:32:21;;;;;;;2.20;0.90;;;;;;;16.64;100.00;97034.50;15285015;19;20010;-56
2022/05/24 03:37:28;;;;;;;1.10;1.00;;;;;;;16.53;100.00;97035.31;15289336;19;20427;-56
2022/05/24 03:42:34;;;;;;;1.80;1.00;;;;;;;16.52;100.00;97041.00;15291319;19;20391;-57
2022/05/24 03:47:40;;;;;;;1.08;0.98;;;;;;;16.42;100.00;97028.81;15287017;19;20011;-53
2022/05/24 03:52:48;;;;;;;1.80;1.10;;;;;;;16.35;100.00;97055.25;15287282;19;20566;-55
2022/05/24 03:58:02;;;;;;;1.20;1.08;;;;;;;16.28;100.00;97052.66;15285287;19;20026;-54
2022/05/24 04:03:08;;;;;;;1.20;1.10;;;;;;;16.30;100.00;97042.34;15282837;19;20361;-58
2022/05/24 04:08:27;;;;;;;1.67;1.10;;;;;;;16.26;100.00;97045.78;15285675;19;20006;-57
2022/05/24 04:13:32;;;;;;;1.38;1.20;;;;;;;16.25;100.00;97054.97;15289023;19;20013;-53
2022/05/24 04:18:39;;;;;;;1.00;1.00;;;;;;;16.20;100.00;97054.84;15286518;19;20021;-60
2022/05/24 04:23:46;;;;;;;1.13;1.00;;;;;;;16.14;100.00;97072.91;15284313;19;20275;-58
2022/05/24 04:28:52;;;;;;;1.70;1.00;;;;;;;16.10;100.00;97079.84;15281619;19;20365;-59
2022/05/24 04:33:58;;;;;;;1.63;1.23;;;;;;;16.04;100.00;97076.16;15280839;19;20006;-58
2022/05/24 04:39:06;;;;;;;1.13;1.10;;;;;;;16.06;100.00;97086.78;15282213;19;20014;-59
2022/05/24 04:44:11;;;;;;;1.17;1.10;;;;;;;16.03;100.00;97088.09;15261323;19;20019;-60
2022/05/24 04:49:17;;;;;;;1.33;1.10;;;;;;;16.09;100.00;97083.63;15283544;19;20010;-60
2022/05/24 04:54:25;;;;;;;0.95;0.95;;;;;;;16.13;100.00;97076.69;15278864;19;20014;-59
2022/05/24 04:59:30;;;;;;;0.90;0.90;;;;;;;16.22;100.00;97085.34;15277572;19;20014;-60
2022/05/24 05:04:37;;;;;;;0.90;0.90;;;;;;;16.32;100.00;97102.75;15280883;19;20375;-58
2022/05/24 05:09:48;;;;;;;0.70;0.70;;;;;;;16.35;100.00;97106.88;15277879;19;20425;-58
2022/05/24 05:14:53;;;;;;;1.10;0.80;;;;;;;16.40;100.00;97100.78;15281333;19;20015;-59
2022/05/24 05:20:02;;;;;;;1.20;0.80;;;;;;;16.51;100.00;97110.00;15278846;19;20471;-56
2022/05/24 05:25:11;;;;;;;0.80;0.80;;;;;;;16.55;100.00;97114.75;15282789;19;20014;-54
2022/05/24 05:35:35;;;;;;;0.80;0.80;;;;;;;16.49;100.00;97123.84;15277682;19;20042;-56
2022/05/24 05:40:52;;;;;;;0.90;0.90;;;;;;;16.45;100.00;97133.50;15272192;19;20044;-61
2022/05/24 05:46:03;;;;;;;;;;;;;;;16.44;100.00;97124.53;15281151;19;20019;-58
2022/05/24 05:51:11;;;;;;;0.80;0.80;;;;;;;16.46;100.00;97121.56;15278271;19;19943;-55
2022/05/24 05:56:22;;;;;;;0.70;0.70;;;;;;;16.58;100.00;97146.09;15280081;19;20129;-55
2022/05/24 06:01:30;;;;;;;1.20;0.90;;;;;;;16.66;100.00;97155.78;15265503;19;20384;-62
2022/05/24 06:06:41;;;;;;;1.00;0.80;;;;;;;16.80;100.00;97157.25;15280273;19;20340;-62
2022/05/24 06:11:52;;;;;;;1.20;0.70;;;;;;;16.91;100.00;97161.91;15272456;19;20014;-60
2022/05/24 06:17:00;;;;;;;0.52;0.52;;;;;;;16.88;100.00;97164.25;15281860;19;20032;-60
2022/05/24 06:22:05;;;;;;;0.70;0.60;;;;;;;16.74;100.00;97159.00;15281340;19;20015;-61
2022/05/24 06:27:13;;;;;;;0.98;0.70;;;;;;;16.69;100.00;97177.09;15281276;19;20046;-61
2022/05/24 06:32:19;;;;;;;0.70;0.50;;;;;;;16.65;100.00;97182.16;15279662;19;20019;-62
2022/05/24 06:37:30;;;;;;;1.85;0.50;;;;;;;16.66;100.00;97186.53;15280724;19;20014;-61
2022/05/24 06:42:38;;;;;;;0.88;0.60;;;;;;;16.76;100.00;97185.97;15274437;19;20476;-61
2022/05/24 06:47:44;;;;;;;0.65;0.55;;;;;;;16.87;100.00;97184.34;15286672;19;20466;-60
2022/05/24 06:52:58;;;;;;;1.25;0.50;;;;;;;17.02;100.00;97181.22;15293558;19;20023;-61
2022/05/24 06:58:06;;;;;;;0.63;0.50;;;;;;;17.22;100.00;97192.66;15295903;19;20015;-61
2022/05/24 07:03:15;;;;;;;0.30;0.30;;;;;;;17.40;100.00;97191.69;15291302;19;20022;-60
2022/05/24 07:08:23;;;;;;;1.00;0.60;;;;;;;17.56;100.00;97200.22;15294068;19;20018;-62
2022/05/24 07:13:31;;;;;;;0.73;0.50;;;;;;;17.59;100.00;97199.75;15292288;19;20019;-61
2022/05/24 07:18:36;;;;;;;0.60;0.60;;;;;;;17.66;100.00;97205.91;15288709;19;20014;-61
2022/05/24 07:23:42;;;;;;;2.08;0.50;;;;;;;17.91;100.00;97220.34;15294451;19;20371;-59
2022/05/24 07:28:50;;;;;;;1.02;0.65;;;;;;;17.99;100.00;97209.94;15291805;19;20018;-61
2022/05/24 07:33:55;;;;;;;0.77;0.40;;;;;;;18.22;100.00;97212.88;15293916;19;20366;-54
2022/05/24 07:39:01;;;;;;;0.98;0.70;;;;;;;18.35;100.00;97220.78;15289315;19;20034;-62
2022/05/24 07:49:28;;;;;;;0.77;0.75;;;;;;;18.31;100.00;97236.78;15284836;19;20046;-60
2022/05/24 07:54:34;;;;;;;0.75;0.60;;;;;;;18.42;100.00;97232.38;15294726;19;20034;-59
2022/05/24 07:59:43;;;;;;;0.80;0.50;;;;;;;18.52;100.00;97220.84;15287272;19;20022;-60
2022/05/24 08:04:49;;;;;;;1.02;0.65;;;;;;;18.47;100.00;97213.41;15296633;19;20038;-61
2022/05/24 08:09:54;;;;;;;0.57;0.50;;;;;;;18.63;100.00;97208.25;15286734;19;20015;-59
2022/05/24 08:15:02;;;;;;;0.73;0.52;;;;;;;18.70;100.00;97214.38;15292540;19;20017;-56
2022/05/24 08:20:10;;;;;;;1.13;0.52;;;;;;;18.77;100.00;97223.22;15285367;19;20010;-56
2022/05/24 08:25:15;;;;;;;1.00;0.40;;;;;;;18.75;100.00;97225.41;15289901;19;20014;-59
2022/05/24 08:30:24;;;;;;;1.48;0.50;;;;;;;18.96;100.00;97231.25;15287978;19;20006;-57
2022/05/24 08:35:29;;;;;;;1.20;0.40;;;;;;;19.04;100.00;97222.66;15288872;19;20018;-59
2022/05/24 08:40:37;;;;;;;1.00;0.60;;;;;;;19.08;100.00;97229.31;15286657;19;20017;-56
2022/05/24 08:51:16;;;;;;;1.50;0.50;;;;;;;19.45;100.00;97241.66;15278869;19;20018;-62
2022/05/24 08:56:25;;;;;;;0.40;0.40;;;;;;;19.18;100.00;97255.13;15286346;19;20563;-56
2022/05/24 09:01:35;;;;;;;1.05;0.40;;;;;;;19.38;100.00;97247.28;15281022;19;20022;-53
2022/05/24 09:06:47;;;;;;;0.65;0.40;;;;;;;19.37;100.00;97248.34;15286967;19;20074;-55
2022/05/24 09:12:08;;;;;;;1.02;0.30;;;;;;;19.61;100.00;97237.25;15283770;19;20031;-56
2022/05/24 09:17:27;;;;;;;1.10;0.30;;;;;;;19.73;100.00;97225.41;15286128;19;20003;-52
2022/05/24 09:22:35;;;;;;;1.20;0.50;;;;;;;19.96;100.00;97233.44;15283767;19;20018;-59
2022/05/24 09:27:53;;;;;;;3.28;0.40;;;;;;;20.19;100.00;97211.63;15283295;19;20069;-59
2022/05/24 09:33:24;;;;;;;0.45;0.22;;;;;;;20.17;100.00;97228.25;15285954;19;20011;-63
2022/05/24 09:38:38;;;;;;;0.95;0.45;;;;;;;20.29;100.00;97203.53;15285227;19;20010;-58
2022/05/24 09:43:44;;;;;;;0.50;0.32;;;;;;;20.46;100.00;97208.94;15285629;19;20017;-59
2022/05/24 09:48:58;;;;;;;1.10;0.40;;;;;;;20.42;100.00;97202.31;15283580;19;20010;-61
2022/05/24 09:54:07;;;;;;;0.30;0.30;;;;;;;20.60;100.00;97215.69;15284499;19;20021;-57
2022/05/24 09:59:26;;;;;;;0.50;0.20;;;;;;;20.69;100.00;97204.25;15278287;19;20401;-57
2022/05/24 10:04:40;;;;;;;0.65;0.30;;;;;;;21.19;100.00;97210.53;15285369;19;20025;-56
2022/05/24 10:09:55;;;;;;;0.95;0.30;;;;;;;21.25;100.00;97210.31;15281935;19;20022;-64
2022/05/24 10:15:17;;;;;;;0.38;0.30;;;;;;;21.02;99.33;97233.41;15282352;19;20018;-67
2022/05/24 10:20:35;;;;;;;0.70;0.20;;;;;;;20.64;100.00;97235.94;15281419;19;20019;-55
2022/05/24 10:25:46;;;;;;;1.95;0.30;;;;;;;20.45;100.00;97259.25;15294627;19;20013;-56
2022/05/24 10:31:00;;;;;;;1.80;0.20;;;;;;;19.81;100.00;97268.72;15294301;19;20022;-58
2022/05/24 10:41:48;;;;;;;1.75;0.20;;;;;;;19.05;100.00;97298.03;15289474;19;20689;-52
2022/05/24 10:47:01;;;;;;;0.30;0.30;;;;;;;18.46;100.00;97326.28;15297646;19;20511;-59
2022/05/24 10:52:15;;;;;;;1.35;0.30;;;;;;;17.41;100.00;97358.59;15290013;19;20507;-59
2022/05/24 10:57:25;;;;;;;0.45;0.15;;;;;;;16.78;100.00;97388.69;15295653;19;20474;-58
2022/05/24 11:02:39;;;;;;;0.25;0.10;;;;;;;16.63;100.00;97385.50;15292705;19;20021;-56
2022/05/24 11:07:50;;;;;;;0.10;0.00;;;;;;;16.56;100.00;97388.28;15296318;19;20344;-55
2022/05/24 11:12:59;;;;;;;0.20;0.10;;;;;;;16.42;100.00;97401.19;15297761;19;20030;-56
2022/05/24 11:18:11;;;;;;;0.38;0.15;;;;;;;16.20;100.00;97419.78;15298267;19;20610;-55
2022/05/24 11:23:24;;;;;;;0.77;0.15;;;;;;;16.42;100.00;97422.94;15297880;19;20043;-56
2022/05/24 11:28:33;;;;;;;0.22;0.10;;;;;;;16.70;100.00;97418.88;15295085;19;20018;-54
2022/05/24 11:33:44;;;;;;;0.30;0.20;;;;;;;16.75;100.00;97426.38;15289228;19;20029;-54
2022/05/24 11:38:53;;;;;;;0.40;0.20;;;;;;;16.92;100.00;97421.19;15296177;19;20365;-56
2022/05/24 11:44:08;;;;;;;1.00;0.20;;;;;;;17.17;100.00;97420.28;15293298;19;20019;-59
2022/05/24 11:49:30;;;;;;;0.75;0.20;;;;;;;17.25;100.00;97442.56;15296934;19;20034;-57
2022/05/24 11:54:59;;;;;;;0.60;0.30;;;;;;;17.53;100.00;97443.03;15294207;19;20371;-57
2022/05/24 12:00:08;;;;;;;0.65;0.10;;;;;;;17.65;100.00;97443.09;15288782;19;20026;-52
2022/05/24 12:10:53;;;;;;;0.73;0.20;;;;;;;18.44;100.00;97432.03;15290384;19;20015;-55
2022/05/24 12:16:03;;;;;;;2.05;0.20;;;;;;;18.69;100.00;97427.41;15291968;19;20014;-55
2022/05/24 12:21:09;;;;;;;1.25;0.10;;;;;;;18.87;100.00;97434.63;15288811;19;20018;-54
2022/05/24 12:26:17;;;;;;;0.10;0.10;;;;;;;19.16;100.00;97410.13;15291058;19;20455;-61
2022/05/24 12:31:34;;;;;;;0.20;0.15;;;;;;;19.69;100.00;97440.94;15285653;19;20114;-54
2022/05/24 12:36:46;;;;;;;0.10;0.10;;;;;;;19.74;100.00;97434.75;15285691;19;20031;-63
2022/05/24 12:42:13;;;;;;;0.40;0.10;;;;;;;19.80;100.00;97441.97;15287307;19;20047;-56
2022/05/24 12:47:23;;;;;;;0.10;0.10;;;;;;;19.46;100.00;97448.16;15288572;19;20020;-57
2022/05/24 12:52:31;;;;;;;0.40;0.10;;;;;;;19.16;100.00;97445.63;15283359;19;20487;-52
2022/05/24 12:57:40;;;;;;;0.73;0.10;;;;;;;19.25;100.00;97445.03;15285010;19;20010;-56
2022/05/24 13:02:50;;;;;;;0.10;0.10;;;;;;;19.68;100.00;97442.00;15287901;19;20366;-53
2022/05/24 13:08:11;;;;;;;0.52;0.20;;;;;;;19.42;100.00;97448.91;15284790;19;20039;-62
2022/05/24 13:13:24;;;;;;;0.20;0.20;;;;;;;19.02;100.00;97459.53;15280635;19;20015;-57
2022/05/24 13:18:34;;;;;;;0.45;0.10;;;;;;;18.93;100.00;97460.94;15286344;19;20023;-56
2022/05/24 13:23:42;;;;;;;0.10;0.10;;;;;;;18.88;100.00;97463.56;15284657;19;20359;-58
2022/05/24 13:28:49;;;;;;;0.85;0.22;;;;;;;18.98;100.00;97469.28;15283754;19;20011;-57
2022/05/24 13:33:58;;;;;;;0.20;0.10;;;;;;;19.29;100.00;97456.28;15283711;19;20376;-58
2022/05/24 13:39:19;;;;;;;2.45;0.20;;;;;;;19.55;98.73;97456.81;15281985;19;20050;-58
2022/05/24 13:44:29;;;;;;;0.30;0.20;;;;;;;19.15;100.00;97466.66;15281164;19;20014;-57
2022/05/24 13:49:43;;;;;;;0.40;0.15;;;;;;;19.80;100.00;97463.84;15281073;19;20010;-58
2022/05/24 13:54:50;;;;;;;0.10;0.10;;;;;;;19.61;100.00;97477.69;15278269;19;20369;-55
2022/05/24 14:00:03;;;;;;;3.78;0.20;;;;;;;19.26;100.00;97464.94;15276081;19;20019;-58
2022/05/24 14:05:34;;;;;;;0.10;0.10;;;;;;;19.09;100.00;97479.38;15278942;19;20011;-56
2022/05/24 14:10:42;;;;;;;0.25;0.20;;;;;;;19.33;100.00;97487.50;15275024;19;20006;-59
2022/05/24 14:15:47;;;;;;;1.30;0.20;;;;;;;19.74;100.00;97484.78;15268953;19;20022;-59
2022/05/24 14:20:55;;;;;;;1.08;0.10;;;;;;;19.85;100.00;97488.50;15271677;19;20028;-58
2022/05/24 14:26:00;;;;;;;2.17;1.05;;;;;;;20.12;96.99;97496.16;15274358;19;20031;-57
2022/05/24 14:31:07;;;;;;;0.17;0.10;;;;;;;20.02;85.27;97522.22;15273155;19;20019;-56
2022/05/24 14:36:15;;;;;;;0.20;0.10;;;;;;;20.22;86.34;97523.66;15277374;19;20027;-55
2022/05/24 14:41:21;;;;;;;0.43;0.20;;;;;;;20.16;88.02;97527.41;15271564;19;20022;-57
2022/05/24 14:46:29;;;;;;;0.40;0.10;;;;;;;20.32;85.99;97529.31;15269867;19;20034;-56
2022/05/24 14:51:43;;;;;;;0.10;0.10;;;;;;;20.26;86.85;97538.53;15267095;19;20022;-59
2022/05/24 14:56:50;;;;;;;1.10;0.20;;;;;;;20.62;83.49;97536.41;15273152;19;20065;-57
2022/05/24 15:01:56;;;;;;;0.90;0.20;;;;;;;20.82;83.16;97539.72;15266133;19;20015;-57
2022/05/24 15:17:41;;;;;;;1.75;0.20;;;;;;;21.15;79.92;97543.53;15293402;19;20031;-56
2022/05/24 15:22:53;;;;;;;0.38;0.20;;;;;;;20.68;78.63;97534.59;15291421;19;20030;-59
2022/05/24 15:28:00;;;;;;;0.35;0.20;;;;;;;20.79;81.54;97552.00;15293097;19;20018;-59
2022/05/24 15:33:05;;;;;;;0.50;0.20;;;;;;;20.89;74.79;97546.69;15282168;19;20082;-59
2022/05/24 15:38:15;;;;;;;1.08;0.20;;;;;;;20.84;70.00;97549.38;15288693;19;20022;-58
2022/05/24 15:43:25;;;;;;;0.25;0.10;;;;;;;20.80;68.66;97563.81;15291086;19;20006;-55
2022/05/24 15:48:38;;;;;;;0.10;0.10;;;;;;;20.46;74.59;97570.03;15297663;19;20018;-54
2022/05/24 15:53:46;;;;;;;0.80;0.20;;;;;;;20.74;69.53;97551.91;15279864;19;20019;-53
2022/05/24 15:58:53;;;;;;;0.38;0.13;;;;;;;20.91;66.17;97560.97;15286628;19;20011;-57
2022/05/24 16:03:59;;;;;;;0.20;0.20;;;;;;;20.78;69.69;97564.88;15264930;19;20006;-56
2022/05/24 16:14:29;;;;;;;0.38;0.20;;;;;;;20.84;58.67;97570.41;15289608;19;20126;-58
2022/05/24 16:19:35;;;;;;;0.25;0.10;;;;;;;20.96;60.28;97573.09;15285667;19;20590;-54
2022/05/24 16:24:43;;;;;;;1.60;0.10;;;;;;;21.18;60.60;97573.97;15284670;19;20014;-55
2022/05/24 16:29:48;;;;;;;0.73;0.10;;;;;;;20.83;60.34;97580.56;15283933;19;20024;-58
2022/05/24 16:34:54;;;;;;;0.08;0.08;;;;;;;20.63;63.74;97578.28;15288718;19;20081;-58
2022/05/24 16:45:53;;;;;;;0.20;0.10;;;;;;;20.04;64.00;97589.50;15285086;19;19995;-55
2022/05/24 16:50:59;;;;;;;0.70;0.17;;;;;;;19.88;64.06;97591.94;15282282;19;20046;-55
2022/05/24 17:01:25;;;;;;;0.20;0.17;;;;;;;20.19;61.51;97610.84;15280546;19;20039;-53
2022/05/24 17:06:30;;;;;;;0.43;0.15;;;;;;;20.33;61.54;97609.50;15286561;19;20014;-55
2022/05/24 17:11:35;;;;;;;0.32;0.20;;;;;;;20.51;63.74;97613.06;15280980;19;20018;-56
2022/05/24 17:16:43;;;;;;;1.05;0.20;;;;;;;20.51;61.17;97615.81;15285721;19;20385;-53
2022/05/24 17:21:48;;;;;;;0.20;0.20;;;;;;;20.33;61.59;97617.69;15281398;19;20015;-58
2022/05/24 17:27:04;;;;;;;0.40;0.20;;;;;;;19.97;62.76;97634.22;15282066;19;20594;-60
2022/05/24 17:32:17;;;;;;;0.57;0.30;;;;;;;19.34;66.97;97633.91;15277687;19;20010;-54
2022/05/24 17:37:22;;;;;;;0.22;0.17;;;;;;;19.15;69.23;97643.28;15282290;19;20491;-55
2022/05/24 17:42:28;;;;;;;0.95;0.20;;;;;;;18.96;71.89;97648.00;15282408;19;20938;-58
2022/05/24 17:47:37;;;;;;;0.45;0.20;;;;;;;18.90;76.28;97652.47;15283769;19;20017;-53
2022/05/24 17:52:42;;;;;;;0.80;0.32;;;;;;;18.32;80.40;97654.75;15279278;19;20007;-55
2022/05/24 17:57:47;;;;;;;1.00;0.30;;;;;;;18.11;83.48;97662.38;15281369;19;20386;-53
2022/05/24 18:02:55;;;;;;;1.67;0.20;;;;;;;18.15;85.39;97663.59;15266792;19;20022;-53
2022/05/24 18:08:00;;;;;;;0.45;0.30;;;;;;;18.00;85.43;97668.59;15280395;19;20014;-59
2022/05/24 18:13:05;;;;;;;0.70;0.28;;;;;;;18.07;86.08;97672.06;15278096;19;20011;-54
2022/05/24 18:18:13;;;;;;;2.35;0.30;;;;;;;18.01;85.76;97681.97;15281044;19;20011;-55
2022/05/24 18:23:22;;;;;;;1.58;0.20;;;;;;;17.95;86.67;97690.19;15280006;19;20046;-53
2022/05/24 18:33:48;;;;;;;0.70;0.20;;;;;;;17.51;86.94;97706.59;15271967;19;20610;-54
2022/05/24 18:38:53;;;;;;;0.32;0.20;;;;;;;17.41;86.57;97712.53;15276306;19;20014;-51
2022/05/24 18:43:58;;;;;;;0.35;0.20;;;;;;;17.29;88.60;97719.75;15285575;19;20018;-48
2022/05/24 18:49:06;;;;;;;0.25;0.20;;;;;;;17.02;88.90;97726.25;15290669;19;20369;-53
2022/05/24 18:54:11;;;;;;;0.55;0.20;;;;;;;16.91;90.79;97732.38;15287975;19;20015;-59
2022/05/24 18:59:16;;;;;;;1.10;0.10;;;;;;;16.89;96.68;97743.44;15291862;19;20042;-54
2022/05/24 19:04:24;;;;;;;3.50;0.25;;;;;;;16.76;96.46;97749.81;15285477;19;20015;-59
2022/05/24 19:09:29;;;;;;;0.60;0.22;;;;;;;16.74;98.39;97759.25;15292184;19;20409;-56
2022/05/24 19:14:34;;;;;;;1.25;0.30;;;;;;;16.72;100.00;97769.50;15284992;19;20031;-60
2022/05/24 19:19:42;;;;;;;0.93;0.20;;;;;;;16.70;100.00;97769.72;15289051;19;20376;-58
2022/05/24 19:24:47;;;;;;;0.20;0.20;;;;;;;16.68;100.00;97773.69;15291462;19;20018;-66
2022/05/24 19:35:32;;;;;;;0.52;0.22;;;;;;;16.55;100.00;97799.91;15291976;19;20011;-63
2022/05/24 19:45:56;;;;;;;0.38;0.22;;;;;;;16.43;100.00;97823.38;15289186;19;20030;-58
2022/05/24 19:51:06;;;;;;;1.08;0.30;;;;;;;16.23;100.00;97821.56;15288557;19;20059;-58
2022/05/24 19:56:11;;;;;;;1.50;0.40;;;;;;;16.09;100.00;97822.63;15288505;19;20029;-57
2022/05/24 20:01:16;;;;;;;0.40;0.20;;;;;;;16.10;100.00;97832.44;15282978;19;20111;-55
2022/05/24 20:06:25;;;;;;;0.32;0.15;;;;;;;16.07;100.00;97833.72;15289825;19;20042;-57
2022/05/24 20:11:30;;;;;;;1.33;0.30;;;;;;;16.01;100.00;97829.97;15279548;19;20024;-56
2022/05/24 20:16:36;;;;;;;1.50;0.25;;;;;;;15.95;100.00;97849.81;15289449;19;20369;-57
2022/05/24 20:21:44;;;;;;;0.60;0.17;;;;;;;15.90;100.00;97857.75;15281631;19;20018;-55
2022/05/24 20:26:49;;;;;;;0.52;0.32;;;;;;;15.64;100.00;97853.13;15285327;19;20007;-55
2022/05/24 20:31:55;;;;;;;0.30;0.20;;;;;;;15.59;100.00;97853.72;15281967;19;20340;-54
2022/05/24 20:37:03;;;;;;;0.47;0.38;;;;;;;15.43;100.00;97857.69;15286473;19;20487;-56
2022/05/24 20:42:11;;;;;;;0.63;0.25;;;;;;;15.31;100.00;97851.19;15273934;19;20038;-54
2022/05/24 20:47:16;;;;;;;1.17;0.38;;;;;;;15.23;100.00;97869.34;15284729;19;20010;-56
2022/05/24 20:52:24;;;;;;;0.88;0.20;;;;;;;15.19;100.00;97870.78;15278406;19;20014;-57
2022/05/24 20:57:30;;;;;;;0.98;0.30;;;;;;;15.16;100.00;97887.50;15284680;19;20035;-55
2022/05/24 21:02:38;;;;;;;0.65;0.30;;;;;;;15.12;100.00;97890.78;15276850;19;20421;-61
2022/05/24 21:08:00;;;;;;;0.98;0.25;;;;;;;14.97;100.00;97894.53;15282755;19;20086;-59
2022/05/24 21:13:06;;;;;;;0.60;0.35;;;;;;;14.94;100.00;97881.38;15274787;19;20015;-59
2022/05/24 21:18:11;;;;;;;0.63;0.40;;;;;;;14.86;100.00;97886.97;15283165;19;20051;-56
2022/05/24 21:23:19;;;;;;;0.45;0.25;;;;;;;14.79;100.00;97897.78;15280498;19;20467;-54
2022/05/24 21:28:28;;;;;;;0.63;0.20;;;;;;;14.75;100.00;97897.34;15284330;19;20010;-56
2022/05/24 21:33:35;;;;;;;0.45;0.35;;;;;;;14.69;100.00;97909.00;15279614;19;20006;-52
2022/05/24 21:38:43;;;;;;;0.75;0.38;;;;;;;14.60;100.00;97904.75;15280448;19;20014;-55
2022/05/24 21:43:48;;;;;;;1.73;0.40;;;;;;;14.49;100.00;97904.28;15282024;19;20023;-57
2022/05/24 21:48:53;;;;;;;0.30;0.30;;;;;;;14.36;100.00;97903.34;15276081;19;20034;-55
2022/05/24 21:54:00;;;;;;;1.00;0.30;;;;;;;14.15;100.00;97896.94;15279168;19;20367;-57
2022/05/24 21:59:05;;;;;;;1.40;0.40;;;;;;;14.03;100.00;97899.38;15281110;19;20039;-52
2022/05/24 22:04:11;;;;;;;0.85;0.40;;;;;;;13.94;100.00;97906.78;15280595;19;20014;-53
2022/05/24 22:09:18;;;;;;;0.88;0.40;;;;;;;13.89;100.00;97908.41;15278629;19;20026;-54
2022/05/24 22:14:25;;;;;;;0.88;0.25;;;;;;;13.78;100.00;97905.22;15276102;19;20467;-52
2022/05/24 22:19:31;;;;;;;0.47;0.25;;;;;;;13.68;100.00;97912.81;15284943;19;20038;-58
2022/05/24 22:24:39;;;;;;;0.95;0.28;;;;;;;13.58;100.00;97918.53;15294500;19;20021;-58
2022/05/24 22:29:44;;;;;;;1.65;0.22;;;;;;;13.47;100.00;97925.28;15295496;19;20566;-54
2022/05/24 22:35:20;;;;;;;1.00;0.30;;;;;;;13.38;100.00;97926.41;15290990;19;20586;-51
2022/05/24 22:40:28;;;;;;;0.30;0.30;;;;;;;13.26;100.00;97916.09;15292190;19;20019;-57
2022/05/24 22:45:33;;;;;;;0.35;0.30;;;;;;;13.18;100.00;97908.13;15294511;19;20479;-54
2022/05/24 22:50:39;;;;;;;1.92;0.30;;;;;;;13.14;100.00;97912.22;15287528;19;20026;-57
2022/05/24 22:55:46;;;;;;;0.40;0.38;;;;;;;13.08;100.00;97918.41;15288823;19;20026;-55
2022/05/24 23:00:51;;;;;;;0.40;0.32;;;;;;;12.91;100.00;97951.03;15291484;19;20014;-55
2022/05/24 23:05:58;;;;;;;1.95;0.70;;;;;;;12.81;100.00;97955.91;15290326;19;20018;-53
2022/05/24 23:11:08;;;;;;;0.52;0.47;;;;;;;12.71;100.00;97963.47;15284339;19;20014;-54
2022/05/24 23:16:14;;;;;;;0.50;0.38;;;;;;;12.65;100.00;97970.44;15286503;19;20026;-53
2022/05/24 23:21:23;;;;;;;1.13;0.40;;;;;;;12.55;100.00;97973.41;15283271;19;20030;-55
2022/05/24 23:26:30;;;;;;;0.60;0.35;;;;;;;12.35;100.00;97973.09;15285323;19;20345;-51
2022/05/24 23:31:36;;;;;;;1.33;0.50;;;;;;;12.18;100.00;97980.53;15279863;19;20337;-52
2022/05/24 23:36:42;;;;;;;1.83;0.60;;;;;;;12.12;100.00;97982.09;15289258;19;20462;-52
2022/05/24 23:41:50;;;;;;;1.60;0.50;;;;;;;12.11;100.00;97974.19;15281849;19;20114;-55
2022/05/24 23:46:55;;;;;;;1.60;0.47;;;;;;;12.03;100.00;97964.28;15288378;19;20698;-55
2022/05/24 23:52:25;;;;;;;1.80;0.50;;;;;;;11.96;100.00;97974.94;15282467;19;20032;-57
2022/05/24 23:57:37;;;;;;;0.70;0.35;;;;;;;11.86;100.00;97974.34;15280777;19;20035;-58
